Flugplatz Meppe Airport

Bericht für ETWM

vom 07.12. um 18:20 UTC

Wind 6 kt aus 110°

Temperatur 3.0°C

Taupunkt 1.0°C

Luftfeuchtigkeit 87%

Luftdruck 1003 hPa

ETWM 071820Z AUTO 11006KT //// // ////// 03/01 Q1003 ///
Keine Prognose (TAF) verfügbar.
Impressum